BE3122 / G-FBJC 7700 Squawk Report (20th of November, 2017)

Aircraft E175 Reg No. G-FBJC Age N/A
Model Emb-175 Jet engines 2 First flight N/A
Registered N/A Rollout N/A Delivered 23-11-11
Construction No. 17000328 Line No. N/A Series 200LR
ADSHEX 406604 Airline name FlyBE Owner N/A
Airfield based Exeter~Devon~G First tracked 2011-11-26 14:42:01

Flight history for G-FBJC

Route Flight No Date Playback
Manchester (MAN) - Saint Exupery (LYS) BE3231 2017-12-11 14:16:00
Blagnac (TLS) - Manchester (MAN) BE3254 2017-12-11 11:48:00
Manchester (MAN) - Blagnac (TLS) BE3253 2017-12-11 08:45:00
Malpensa (MXP) - Manchester (MAN) BE7352 2017-12-10 16:12:00
Manchester (MAN) - Malpensa (MXP) BE7351 2017-12-10 12:58:00
Charles De Gaulle (CDG) - Manchester (MAN) BE3122 2017-12-10 10:14:00
Manchester (MAN) - Charles De Gaulle (CDG) BE3121 2017-12-10 07:26:00
Malpensa (MXP) - Manchester (MAN) BE7352 2017-12-09 17:05:00
Manchester (MAN) - Malpensa (MXP) BE7351 2017-12-09 13:44:00
Schiphol (AMS) - Manchester (MAN) BE1282 2017-12-08 23:30:00
Manchester (MAN) - Schiphol (AMS) BE1281 2017-12-08 19:28:00
Malpensa (MXP) - Manchester (MAN) BE7352 2017-12-08 17:14:00
Manchester (MAN) - Malpensa (MXP) BE7351 2017-12-08 13:59:00
Saint Exupery (LYS) - Manchester (MAN) BE3232 2017-12-08 11:30:00
Manchester (MAN) - Saint Exupery (LYS) BE3231 2017-12-08 08:38:00
Dyce (ABZ) - Manchester (MAN) BE1046 2017-12-07 21:29:00
Manchester (MAN) - Dyce (ABZ) BE1045 2017-12-07 19:47:00
Blagnac (TLS) - Manchester (MAN) BE3254 2017-12-07 18:05:00
Manchester (MAN) - Blagnac (TLS) BE3253 2017-12-07 14:56:00
Saint Exupery (LYS) - Manchester (MAN) BE3232 2017-12-07 11:14:00
Time Lat Lon Altitude Heading Speed Vertical Rate
2017-11-20 11:08:22 GMT 53.42318 -1.96111 3,500 358 195 -780
2017-11-20 11:05:20 GMT 53.27365 -1.93875 5,175 359 203 -1260
2017-11-20 11:04:43 GMT 53.23954 -1.93686 6,050 359 217 -840
2017-11-20 11:04:32 GMT 53.23001 -1.93625 6,225 357 197 -660
2017-11-20 11:03:24 GMT 53.17548 -1.90356 6,975 320 170 -840
2017-11-20 11:03:15 GMT 53.17005 -1.89606 7,100 335 216 -660
2017-11-20 11:03:02 GMT 53.15959 -1.88813 7,300 265 289 -360
2017-11-20 11:02:52 GMT 53.15302 -1.87917 7,300 308 200 -1380
2017-11-20 11:02:44 GMT 53.14842 -1.86946 7,425 329 131 -1500
2017-11-20 11:02:32 GMT 53.14012 -1.85910 7,550 324 185 -1260
2017-11-20 11:02:24 GMT 53.13515 -1.85289 7,875 327 197 0
2017-11-20 11:02:15 GMT 53.12826 -1.84543 7,875 327 181 -240
2017-11-20 11:02:03 GMT 53.11977 -1.83629 7,875 325 185 -1140
2017-11-20 11:01:54 GMT 53.11345 -1.82881 7,950 326 184 -960
2017-11-20 11:01:44 GMT 53.10631 -1.82097 8,200 324 184 0
2017-11-20 11:01:33 GMT 53.09824 -1.81162 8,200 327 182 -600
2017-11-20 11:01:25 GMT 53.09229 -1.80587 8,200 324 182 -1920
2017-11-20 11:01:14 GMT 53.08470 -1.79687 8,400 324 186 -1200
2017-11-20 11:01:03 GMT 53.07692 -1.78774 8,925 325 196 -1320
2017-11-20 11:00:54 GMT 53.07041 -1.78055 8,800 324 195 -1800
2017-11-20 11:00:46 GMT 53.06415 -1.77335 9,400 323 177 480
2017-11-20 11:00:34 GMT 53.05624 -1.76356 9,400 325 196 540
2017-11-20 11:00:13 GMT 53.04091 -1.74553 28,275 325 180 69540
2017-11-20 10:59:53 GMT 53.02687 -1.72897 9,725 325 179 -1140
2017-11-20 10:59:45 GMT 53.02132 -1.72258 9,900 325 168 -720
2017-11-20 10:59:24 GMT 53.00667 -1.70593 27,000 323 169 0
2017-11-20 10:59:13 GMT 52.99937 -1.69725 27,000 324 178 0
2017-11-20 10:59:04 GMT 52.99353 -1.69003 27,000 328 219 0
2017-11-20 10:58:54 GMT 52.98484 -1.68130 27,000 321 172 0
2017-11-20 10:58:44 GMT 52.97903 -1.67354 27,000 327 188 0
2017-11-20 10:58:34 GMT 52.97197 -1.66502 27,000 326 193 58500
2017-11-20 10:58:25 GMT 52.96522 -1.65767 26,750 325 188 57000
2017-11-20 10:58:14 GMT 52.95730 -1.64866 11,400 326 196 -660
2017-11-20 10:58:03 GMT 52.94977 -1.63977 11,550 325 196 -7560
2017-11-20 10:57:55 GMT 52.94376 -1.63296 13,200 324 179 5640
2017-11-20 10:57:46 GMT 52.93768 -1.62571 11,975 324 180 -900
2017-11-20 10:57:32 GMT 52.92789 -1.61458 11,975 323 179 -5220
2017-11-20 10:57:24 GMT 52.92255 -1.60801 12,225 320 177 -3900
2017-11-20 10:57:14 GMT 52.91619 -1.59943 13,200 325 192 -42540
2017-11-20 10:57:02 GMT 52.90733 -1.58945 24,550 327 203 0
2017-11-20 10:56:53 GMT 52.90096 -1.58232 24,550 324 200 49260
2017-11-20 10:56:45 GMT 52.89464 -1.57549 24,550 325 195 53040
2017-11-20 10:56:34 GMT 52.88678 -1.56654 13,050 326 195 -1140
2017-11-20 10:56:24 GMT 52.87927 -1.55818 13,325 327 187 -360
2017-11-20 10:56:16 GMT 52.87341 -1.55196 13,400 327 176 -840
2017-11-20 10:56:04 GMT 52.86493 -1.54226 13,600 327 192 -2460
2017-11-20 10:55:53 GMT 52.85714 -1.53411 13,600 326 196 1320
2017-11-20 10:55:45 GMT 52.85111 -1.52740 14,300 330 209 1140
2017-11-20 10:55:33 GMT 52.84176 -1.51768 14,025 329 200 -1380
2017-11-20 10:55:24 GMT 52.83520 -1.51075 14,200 327 207 -900
2017-11-20 10:55:15 GMT 52.82790 -1.50305 14,400 327 179 -4200
2017-11-20 10:55:03 GMT 52.81904 -1.49366 15,450 328 201 3060
2017-11-20 10:54:54 GMT 52.81186 -1.48647 15,450 328 192 1020
2017-11-20 10:54:43 GMT 52.80381 -1.47771 14,775 328 197 -1500
2017-11-20 10:54:33 GMT 52.79612 -1.46985 15,200 327 204 -780
2017-11-20 10:54:24 GMT 52.78895 -1.46232 15,175 326 201 -840
2017-11-20 10:54:15 GMT 52.78202 -1.45466 15,400 327 206 -1020
2017-11-20 10:54:03 GMT 52.77233 -1.44448 15,700 325 195 -1680
2017-11-20 10:53:54 GMT 52.76561 -1.43688 15,700 326 200 420
2017-11-20 10:53:45 GMT 52.75843 -1.42922 16,125 315 174 540
2017-11-20 10:53:36 GMT 52.75322 -1.42083 16,000 332 226 -2460
2017-11-20 10:53:23 GMT 52.74146 -1.41056 16,625 325 219 -300
2017-11-20 10:53:15 GMT 52.73476 -1.40297 16,425 326 210 -900
2017-11-20 10:53:06 GMT 52.72416 -1.39510 16,725 312 149 -4500
2017-11-20 10:52:54 GMT 52.71727 -1.38454 16,725 323 179 2160
2017-11-20 10:52:45 GMT 52.71126 -1.37715 17,775 327 215 2160
2017-11-20 10:52:34 GMT 52.70199 -1.36709 17,300 327 208 -2400
2017-11-20 10:52:24 GMT 52.69384 -1.35853 17,625 326 209 -1260
2017-11-20 10:52:15 GMT 52.68653 -1.35065 17,900 330 209 -1260
2017-11-20 10:52:05 GMT 52.67814 -1.34266 18,225 334 257 10680
2017-11-20 10:51:54 GMT 52.66632 -1.33325 18,225 309 158 -15060
2017-11-20 10:51:45 GMT 52.66211 -1.32489 15,375 329 225 -15060
2017-11-20 10:51:36 GMT 52.65407 -1.31694 18,900 329 184 -3000
2017-11-20 10:51:25 GMT 52.64521 -1.30823 19,550 328 223 -900
2017-11-20 10:51:14 GMT 52.63620 -1.29935 19,750 327 229 -300
2017-11-20 10:51:06 GMT 52.62922 -1.29203 19,825 328 216 -420
2017-11-20 10:50:55 GMT 52.61958 -1.28224 19,825 328 203 -360
2017-11-20 10:50:45 GMT 52.61212 -1.27405 19,925 330 248 -360
2017-11-20 10:50:35 GMT 52.60396 -1.26534 20,000 331 231 0
2017-11-20 10:50:24 GMT 52.59392 -1.25527 20,000 331 217 0
2017-11-20 10:50:15 GMT 52.58610 -1.24795 20,000 326 229 0
2017-11-20 10:50:05 GMT 52.57716 -1.23920 20,000 330 230 0
2017-11-20 10:49:55 GMT 52.56875 -1.23009 20,000 333 215 0
2017-11-20 10:49:45 GMT 52.55931 -1.22177 20,000 313 173 0
2017-11-20 10:49:35 GMT 52.55382 -1.21214 20,000 333 243 0
2017-11-20 10:49:24 GMT 52.54277 -1.20348 20,000 327 218 0
2017-11-20 10:49:16 GMT 52.53558 -1.19596 20,000 327 207 0
2017-11-20 10:49:06 GMT 52.52751 -1.18702 20,000 331 222 0
2017-11-20 10:48:55 GMT 52.51783 -1.17758 20,000 337 253 0
2017-11-20 10:48:45 GMT 52.50702 -1.17010 20,000 312 177 0
2017-11-20 10:48:35 GMT 52.50198 -1.15876 20,000 335 228 7980
2017-11-20 10:48:24 GMT 52.48831 -1.15260 20,000 319 196 -8400
2017-11-20 10:48:14 GMT 52.48117 -1.14338 17,200 323 210 -13980
2017-11-20 10:48:06 GMT 52.47491 -1.13576 20,000 319 183 0
2017-11-20 10:47:56 GMT 52.46812 -1.12666 20,000 329 215 0
2017-11-20 10:47:45 GMT 52.45748 -1.11801 20,000 324 209 0
2017-11-20 10:47:36 GMT 52.45039 -1.10964 20,000 322 187 0
2017-11-20 10:47:26 GMT 52.44278 -1.10054 20,000 334 227 0
2017-11-20 10:47:15 GMT 52.43298 -1.09107 20,000 327 199 0
2017-11-20 10:47:06 GMT 52.42596 -1.08380 20,000 332 233 4800
2017-11-20 10:46:45 GMT 52.40588 -1.06645 18,000 300 184 -9960
2017-11-20 10:46:35 GMT 52.39908 -1.05404 20,000 316 144 0
2017-11-20 10:46:25 GMT 52.39343 -1.04517 20,000 321 208 0
2017-11-20 10:46:16 GMT 52.38666 -1.03628 20,000 322 218 0
2017-11-20 10:46:06 GMT 52.37568 -1.02822 20,000 297 168 0
2017-11-20 10:45:55 GMT 52.37050 -1.01520 20,000 322 208 0
2017-11-20 10:45:45 GMT 52.36389 -1.00488 20,000 329 227 0
2017-11-20 10:45:36 GMT 52.35568 -0.99708 20,000 321 217 0
2017-11-20 10:45:26 GMT 52.34780 -0.98682 20,000 317 195 0
2017-11-20 10:45:14 GMT 52.33754 -0.97653 20,000 307 190 0
2017-11-20 10:45:04 GMT 52.33178 -0.96429 20,000 321 212 0
2017-11-20 10:44:56 GMT 52.32564 -0.95622 20,000 323 209 0
2017-11-20 10:44:47 GMT 52.31861 -0.94774 20,000 318 219 0
2017-11-20 10:44:35 GMT 52.31017 -0.93599 20,000 315 226 0
2017-11-20 10:44:27 GMT 52.30417 -0.92643 20,000 307 200 0
2017-11-20 10:44:16 GMT 52.29790 -0.91327 20,000 287 168 0
2017-11-20 10:44:05 GMT 52.29913 -0.90178 20,000 319 326 0
2017-11-20 10:43:55 GMT 52.28762 -0.88579 20,000 299 207 -2880
2017-11-20 10:43:47 GMT 52.28385 -0.87504 20,000 303 209 -3300
2017-11-20 10:43:36 GMT 52.27870 -0.85983 20,725 303 198 3300
2017-11-20 10:43:25 GMT 52.27307 -0.84652 20,000 301 199 0
2017-11-20 10:43:14 GMT 52.26636 -0.83225 20,000 295 186 0
2017-11-20 10:43:06 GMT 52.26335 -0.82208 20,000 297 204 0
2017-11-20 10:42:54 GMT 52.25691 -0.80589 20,000 300 190 0
2017-11-20 10:42:45 GMT 52.25336 -0.79484 20,000 303 212 0
2017-11-20 10:42:36 GMT 52.24847 -0.78276 20,000 294 195 0
2017-11-20 10:42:27 GMT 52.24515 -0.77062 20,000 309 212 0
2017-11-20 10:42:16 GMT 52.23845 -0.75729 20,000 300 197 0
2017-11-20 10:42:06 GMT 52.23269 -0.74472 20,000 294 200 0
2017-11-20 10:41:56 GMT 52.22810 -0.73193 20,000 296 212 0
2017-11-20 10:41:45 GMT 52.22285 -0.71679 20,000 301 195 0
2017-11-20 10:41:35 GMT 52.21764 -0.70385 20,000 297 194 0
2017-11-20 10:41:26 GMT 52.21386 -0.69217 20,000 302 211 0
2017-11-20 10:41:16 GMT 52.20896 -0.67942 20,000 301 197 0
2017-11-20 10:41:05 GMT 52.20368 -0.66659 20,000 301 230 0
2017-11-20 10:40:55 GMT 52.19818 -0.65244 20,000 315 250 0
2017-11-20 10:40:26 GMT 52.17940 -0.61494 20,000 268 154 0
2017-11-20 10:40:13 GMT 52.18016 -0.59904 20,000 312 252 0
2017-11-20 10:40:05 GMT 52.17385 -0.58785 20,000 289 191 0
2017-11-20 10:39:56 GMT 52.17117 -0.57563 20,000 308 234 0
2017-11-20 10:39:45 GMT 52.16382 -0.56170 20,000 298 199 0
2017-11-20 10:39:35 GMT 52.15939 -0.54853 20,000 306 199 -34260
2017-11-20 10:39:23 GMT 52.15057 -0.53236 20,000 289 181 31980
2017-11-20 10:39:14 GMT 52.14780 -0.52074 28,000 293 195 39960
2017-11-20 10:39:06 GMT 52.14496 -0.50990 20,000 307 205 0
2017-11-20 10:38:54 GMT 52.13848 -0.49485 20,000 300 189 0
2017-11-20 10:38:45 GMT 52.13443 -0.48381 20,000 309 194 0
2017-11-20 10:38:35 GMT 52.12913 -0.47044 20,000 306 183 0
2017-11-20 10:38:26 GMT 52.12463 -0.46039 20,000 300 224 0
2017-11-20 10:38:16 GMT 52.11933 -0.44582 20,000 311 185 0
2017-11-20 10:38:06 GMT 52.11305 -0.43432 20,000 318 210 0
2017-11-20 10:37:56 GMT 52.10582 -0.42502 20,000 325 211 0
2017-11-20 10:37:44 GMT 52.09609 -0.41429 20,000 324 214 0
2017-11-20 10:37:37 GMT 52.09013 -0.40777 20,000 324 215 0
2017-11-20 10:37:25 GMT 52.07850 -0.39703 20,000 319 182 0
2017-11-20 10:37:14 GMT 52.07370 -0.38851 20,000 330 291 0
2017-11-20 10:37:06 GMT 52.06436 -0.37978 20,000 321 178 0
2017-11-20 10:36:56 GMT 52.05725 -0.37202 20,000 327 232 0
2017-11-20 10:36:45 GMT 52.04725 -0.36167 20,000 323 204 0
2017-11-20 10:36:35 GMT 52.03961 -0.35257 20,000 330 226 0
2017-11-20 10:36:27 GMT 52.03232 -0.34585 20,000 327 216 0
2017-11-20 10:36:15 GMT 52.02221 -0.33536 20,000 325 212 0
2017-11-20 10:35:50 GMT 51.99445 -0.31717 20,000 276 179 0
2017-11-20 10:35:45 GMT 51.99734 -0.30773 20,000 319 175 0
2017-11-20 10:35:35 GMT 51.99115 -0.29923 20,000 328 224 0
2017-11-20 10:35:24 GMT 51.97946 -0.28890 20,000 322 177 0
2017-11-20 10:35:14 GMT 51.97296 -0.28074 20,000 316 176 0
2017-11-20 10:35:06 GMT 51.96827 -0.27340 20,000 332 263 0
2017-11-20 10:34:54 GMT 51.95690 -0.26212 20,000 325 220 0
2017-11-20 10:34:44 GMT 51.94878 -0.25338 20,000 325 222 0
2017-11-20 10:34:36 GMT 51.94196 -0.24589 20,000 337 276 0
2017-11-20 10:34:27 GMT 51.93131 -0.23870 20,000 305 157 0
2017-11-20 10:34:14 GMT 51.92488 -0.22639 20,000 335 271 0
2017-11-20 10:34:05 GMT 51.91462 -0.21865 20,000 318 196 0
2017-11-20 10:33:57 GMT 51.90914 -0.21093 20,000 315 198 0
2017-11-20 10:33:45 GMT 51.90004 -0.19983 20,000 318 207 0
2017-11-20 10:33:35 GMT 51.89173 -0.19109 20,000 327 213 0
2017-11-20 10:33:24 GMT 51.88333 -0.18168 20,000 322 218 0
2017-11-20 10:33:16 GMT 51.87689 -0.17379 20,000 328 191 0
2017-11-20 10:33:05 GMT 51.86689 -0.16415 20,000 328 224 0
2017-11-20 10:32:56 GMT 51.85891 -0.15632 20,000 313 184 0
2017-11-20 10:32:45 GMT 51.85228 -0.14580 20,000 326 227 0
2017-11-20 10:32:36 GMT 51.84442 -0.13730 20,000 325 196 0
2017-11-20 10:32:26 GMT 51.83594 -0.12970 20,000 317 219 0
2017-11-20 10:32:16 GMT 51.82784 -0.11989 20,000 319 210 0
2017-11-20 10:32:06 GMT 51.82059 -0.11041 20,000 325 226 0
2017-11-20 10:31:57 GMT 51.81281 -0.10184 20,000 324 215 0
2017-11-20 10:31:45 GMT 51.80311 -0.09049 20,000 326 218 0
2017-11-20 10:31:37 GMT 51.79636 -0.08332 20,000 327 184 0
2017-11-20 10:31:26 GMT 51.78648 -0.07466 20,000 314 191 0
2017-11-20 10:31:16 GMT 51.77984 -0.06470 20,000 326 200 0
2017-11-20 10:31:06 GMT 51.77154 -0.05560 20,000 329 210 0
2017-11-20 10:30:57 GMT 51.76398 -0.04846 20,000 320 213 0
2017-11-20 10:30:46 GMT 51.75535 -0.03819 20,000 323 207 0
2017-11-20 10:30:36 GMT 51.74784 -0.02864 20,000 327 216 0
2017-11-20 10:30:26 GMT 51.73842 -0.02049 20,000 319 202 0
2017-11-20 10:30:16 GMT 51.73136 -0.01060 20,000 325 219 0
2017-11-20 10:30:07 GMT 51.72380 -0.00230 20,000 327 207 0
2017-11-20 10:29:55 GMT 51.71477 0.00776 20,000 324 223 0
2017-11-20 10:29:46 GMT 51.70723 0.01653 20,000 325 216 0
2017-11-20 10:29:36 GMT 51.69895 0.02590 20,000 330 205 0
2017-11-20 10:29:26 GMT 51.69151 0.03574 20,000 333 192 0
2017-11-20 10:29:16 GMT 51.68294 0.04350 20,000 323 198 0
2017-11-20 10:29:06 GMT 51.67495 0.05238 20,000 323 205 0
2017-11-20 10:28:56 GMT 51.66630 0.06067 20,000 319 201 0
2017-11-20 10:28:46 GMT 51.65924 0.07054 20,000 325 208 0
2017-11-20 10:28:36 GMT 51.65156 0.07925 20,000 326 212 0
2017-11-20 10:28:26 GMT 51.64272 0.08883 20,000 323 197 0
2017-11-20 10:28:16 GMT 51.63467 0.09827 20,000 317 215 0
2017-11-20 10:28:06 GMT 51.62703 0.10741 20,000 331 182 0
2017-11-20 10:27:56 GMT 51.61808 0.11364 20,000 329 223 0
2017-11-20 10:27:26 GMT 51.59127 0.13888 20,000 286 226 0
2017-11-20 10:27:16 GMT 51.58736 0.15319 20,000 325 217 0
2017-11-20 10:27:06 GMT 51.57965 0.16240 20,000 325 227 0
2017-11-20 10:26:56 GMT 51.57131 0.17135 20,000 325 200 0
2017-11-20 10:26:45 GMT 51.56271 0.18200 20,000 324 204 0
2017-11-20 10:26:37 GMT 51.55653 0.18901 20,000 326 215 0
2017-11-20 10:26:27 GMT 51.54875 0.19822 20,000 323 212 0
2017-11-20 10:26:15 GMT 51.53982 0.20952 20,000 327 224 0
2017-11-20 10:26:07 GMT 51.53279 0.21665 20,000 325 199 0
2017-11-20 10:25:56 GMT 51.52395 0.22681 20,000 319 228 0
2017-11-20 10:25:44 GMT 51.51428 0.23867 20,000 323 198 0
2017-11-20 10:25:37 GMT 51.50864 0.24514 20,000 326 194 0
2017-11-20 10:25:27 GMT 51.50098 0.25358 20,000 324 223 0
2017-11-20 10:25:15 GMT 51.49169 0.26486 20,000 321 215 0
2017-11-20 10:25:07 GMT 51.48545 0.27238 20,000 327 203 0
2017-11-20 10:24:57 GMT 51.47746 0.28154 20,000 324 208 0
2017-11-20 10:24:45 GMT 51.46819 0.29256 20,000 322 212 0
2017-11-20 10:24:37 GMT 51.46193 0.30022 20,000 325 216 0
2017-11-20 10:24:26 GMT 51.45334 0.31089 20,000 317 209 0
2017-11-20 10:24:16 GMT 51.44645 0.32166 20,000 311 217 0
2017-11-20 10:24:07 GMT 51.44044 0.33256 20,000 313 198 0
2017-11-20 10:23:57 GMT 51.43456 0.34339 20,000 311 203 0
2017-11-20 10:23:45 GMT 51.42673 0.35801 20,000 310 205 0
2017-11-20 10:23:37 GMT 51.42145 0.36772 20,000 308 189 0
2017-11-20 10:23:27 GMT 51.41598 0.37868 20,000 312 214 0
2017-11-20 10:23:15 GMT 51.40792 0.39293 20,000 310 211 0
2017-11-20 10:23:07 GMT 51.40280 0.40240 20,000 313 181 0
2017-11-20 10:22:57 GMT 51.39680 0.41459 20,000 313 202 0
2017-11-20 10:22:45 GMT 51.38975 0.42704 20,000 310 217 0
2017-11-20 10:22:37 GMT 51.38452 0.43682 20,000 307 215 0
2017-11-20 10:22:25 GMT 51.37662 0.45181 20,000 310 200 0
2017-11-20 10:22:15 GMT 51.37054 0.46305 20,000 310 186 0
2017-11-20 10:22:07 GMT 51.36606 0.47143 20,000 310 221 0
2017-11-20 10:21:56 GMT 51.35884 0.48253 20,000 302 270 0
2017-11-20 10:21:45 GMT 51.35220 0.49761 20,000 309 225 0
2017-11-20 10:21:37 GMT 51.34683 0.50787 20,000 313 179 0
2017-11-20 10:21:26 GMT 51.33994 0.52289 20,000 321 155 0
2017-11-20 10:21:16 GMT 51.33467 0.53095 20,000 310 221 0
2017-11-20 10:21:07 GMT 51.32868 0.54218 20,000 321 149 0
2017-11-20 10:20:56 GMT 51.32272 0.54967 20,000 303 294 0
2017-11-20 10:20:46 GMT 51.31567 0.56671 20,000 310 228 0
2017-11-20 10:20:37 GMT 51.30945 0.57821 20,000 305 220 0
2017-11-20 10:20:26 GMT 51.30293 0.59043 20,000 307 229 0
2017-11-20 10:20:15 GMT 51.29517 0.60507 20,000 309 166 0
2017-11-20 10:20:07 GMT 51.29125 0.61265 20,000 310 194 0
2017-11-20 10:19:56 GMT 51.28487 0.62474 20,000 310 232 0
2017-11-20 10:19:44 GMT 51.27733 0.63902 20,000 310 248 0
2017-11-20 10:19:34 GMT 51.27033 0.65164 20,000 308 184 0
2017-11-20 10:19:24 GMT 51.26506 0.66235 20,000 311 240 0
2017-11-20 10:19:16 GMT 51.25906 0.67321 20,000 310 178 0
2017-11-20 10:19:04 GMT 51.25178 0.68702 20,000 311 209 0
2017-11-20 10:18:55 GMT 51.24602 0.69747 20,000 315 167 0
2017-11-20 10:18:45 GMT 51.23974 0.70946 20,000 314 194 0
2017-11-20 10:18:35 GMT 51.23347 0.71980 20,000 305 215 0
2017-11-20 10:18:24 GMT 51.22754 0.73271 20,000 307 192 0
2017-11-20 10:18:15 GMT 51.22173 0.74373 20,000 303 261 0
2017-11-20 10:18:06 GMT 51.21576 0.75831 20,000 313 235 0
2017-11-20 10:17:54 GMT 51.20885 0.76783 20,000 310 211 0
2017-11-20 10:17:45 GMT 51.20465 0.76533 20,000 297 397 0
2017-11-20 10:17:33 GMT 51.19556 0.79227 20,000 316 159 0
2017-11-20 10:17:24 GMT 51.19002 0.80325 20,000 310 210 0
2017-11-20 10:17:15 GMT 51.18370 0.81477 20,000 309 171 0
2017-11-20 10:17:06 GMT 51.17918 0.82360 20,000 310 301 0
2017-11-20 10:16:54 GMT 51.17022 0.84056 20,000 324 103 0
2017-11-20 10:16:45 GMT 51.16661 0.84762 20,000 311 259 0
2017-11-20 10:16:33 GMT 51.15705 0.86477 20,000 319 134 0
2017-11-20 10:16:23 GMT 51.15178 0.87486 20,000 315 148 0
2017-11-20 10:16:14 GMT 51.14680 0.87879 20,000 300 305 0
2017-11-20 10:16:06 GMT 51.14176 0.89362 20,000 309 201 0
2017-11-20 10:15:56 GMT 51.13493 0.90621 20,000 318 154 0
2017-11-20 10:15:45 GMT 51.12859 0.91933 20,000 321 163 0
2017-11-20 10:15:35 GMT 51.12270 0.92687 20,000 302 234 0
2017-11-20 10:15:24 GMT 51.11655 0.94271 20,000 312 225 0
2017-11-20 10:15:14 GMT 51.10823 0.95758 20,000 309 146 0
2017-11-20 10:15:05 GMT 51.10430 0.96505 20,000 310 214 0
2017-11-20 10:14:53 GMT 51.09524 0.98204 20,000 308 159 0
2017-11-20 10:14:44 GMT 51.08943 0.99306 20,000 307 158 0
2017-11-20 10:14:36 GMT 51.08734 0.99570 20,000 308 283 0
2017-11-20 10:14:15 GMT 51.07556 1.01233 20,000 312 186 0
2017-11-20 10:13:34 GMT 51.04721 1.03299 20,000 286 514 0
2017-11-20 10:13:21 GMT 51.04104 1.07817 20,000 302 340 0
2017-11-20 10:13:15 GMT 51.03462 1.09663 20,000 327 97 0
2017-11-20 10:12:53 GMT 51.02167 1.11741 20,000 308 249 0
2017-11-20 10:12:45 GMT 51.01613 1.13198 20,000 322 168 0
2017-11-20 10:12:14 GMT 50.99449 1.16538 20,000 350 97 0
2017-11-20 10:12:04 GMT 50.99096 1.15945 20,000 305 306 0
2017-11-20 10:11:56 GMT 50.98647 1.16750 20,000 307 337 0
2017-11-20 10:11:44 GMT 50.97498 1.19099 20,000 315 277 0
2017-11-20 10:11:34 GMT 50.96590 1.20536 20,000 319 187 0
2017-11-20 10:11:24 GMT 50.95927 1.21428 20,000 318 210 0
2017-11-20 10:11:14 GMT 50.95172 1.22484 20,000 320 167 0
2017-11-20 10:10:52 GMT 50.93813 1.24356 20,000 318 190 0
2017-11-20 10:10:32 GMT 50.92493 1.26211 20,000 333 179 0
2017-11-20 10:10:04 GMT 50.90417 1.27887 20,000 307 254 0
2017-11-20 10:09:53 GMT 50.89776 1.28825 20,000 310 280 0
2017-11-20 10:09:43 GMT 50.88922 1.30381 20,000 310 250 0
2017-11-20 10:09:31 GMT 50.88126 1.31537 20,000 309 338 0
2017-11-20 10:09:20 GMT 50.87202 1.33606 20,000 317 292 0
2017-11-20 10:09:15 GMT 50.86538 1.34611 20,000 337 130 0
2017-11-20 10:09:02 GMT 50.85817 1.35095 20,000 314 282 0
2017-11-20 10:08:56 GMT 50.85217 1.36234 20,000 312 210 0
2017-11-20 10:08:42 GMT 50.84383 1.37288 20,000 321 225 0
2017-11-20 10:08:36 GMT 50.83708 1.38703 20,000 316 202 0
2017-11-20 10:08:26 GMT 50.83081 1.38939 20,000 302 349 0
2017-11-20 10:08:14 GMT 50.82098 1.40861 20,000 310 275 0
2017-11-20 10:08:05 GMT 50.81488 1.42001 20,000 324 199 0
2017-11-20 10:07:54 GMT 50.80822 1.42648 20,000 320 224 0
2017-11-20 10:07:42 GMT 50.79761 1.43960 20,000 318 195 0
2017-11-20 10:07:34 GMT 50.79227 1.44749 20,000 303 382 0
2017-11-20 10:07:23 GMT 50.78240 1.46572 20,000 320 185 0
2017-11-20 10:07:10 GMT 50.77253 1.48228 20,000 34 127 0
2017-11-20 10:07:02 GMT 50.76846 1.48387 20,000 330 130 0
2017-11-20 10:06:35 GMT 50.75542 1.46384 20,000 302 288 0
2017-11-20 10:06:14 GMT 50.73661 1.51374 20,000 311 258 0
2017-11-20 10:06:04 GMT 50.73345 1.51934 20,000 315 259 0
2017-11-20 10:05:56 GMT 50.72181 1.54389 20,000 330 121 0
2017-11-20 10:05:40 GMT 50.71279 1.55111 20,000 316 219 0
2017-11-20 10:05:32 GMT 50.70686 1.55907 20,000 318 209 0
2017-11-20 10:05:11 GMT 50.69706 1.57095 20,000 313 384 0
2017-11-20 10:05:06 GMT 50.68765 1.58836 20,000 308 372 0
2017-11-20 10:04:56 GMT 50.67864 1.60144 20,000 314 250 0
2017-11-20 10:04:41 GMT 50.65922 1.64052 20,000 354 110 0
2017-11-20 10:04:25 GMT 50.65480 1.63464 20,000 330 221 0
2017-11-20 10:04:03 GMT 50.63384 1.65663 20,000 352 174 0
2017-11-20 10:03:56 GMT 50.63050 1.65096 20,000 324 257 0
2017-11-20 10:03:43 GMT 50.61783 1.66507 20,000 321 310 0
2017-11-20 10:03:35 GMT 50.61031 1.67026 20,000 346 166 0
2017-11-20 10:03:05 GMT 50.57537 1.71919 20,000 344 174 0
2017-11-20 10:02:22 GMT 50.54307 1.72962 20,000 0 126 0
2017-11-20 10:01:50 GMT 50.51534 1.75016 20,000 12 132 0
2017-11-20 10:01:32 GMT 50.51382 1.72884 20,000 329 231 0
2017-11-20 10:01:23 GMT 50.49919 1.74473 20,000 333 210 0
2017-11-20 10:00:50 GMT 50.47486 1.76424 20,000 326 291 0
2017-11-20 10:00:36 GMT 50.45934 1.78025 20,000 328 270 0
2017-11-20 10:00:15 GMT 50.44019 1.78881 20,000 322 291 0
2017-11-20 10:00:05 GMT 50.42432 1.81689 20,000 334 209 0
2017-11-20 09:59:45 GMT 50.40805 1.82730 20,000 330 229 0
2017-11-20 09:59:35 GMT 50.39855 1.83591 20,000 329 247 0
2017-11-20 09:57:36 GMT 50.28274 1.94702 20,000 343 188 0
2017-11-20 09:57:19 GMT 50.26962 1.93708 20,000 335 217 0
2017-11-20 09:57:13 GMT 50.27411 1.93023 20,000 329 266 0
2017-11-20 09:57:05 GMT 50.25570 1.94703 20,000 335 216 0
2017-11-20 09:56:58 GMT 50.25021 1.95119 20,000 335 215 0
2017-11-20 09:56:54 GMT 50.24001 1.95854 20,000 334 213 0
2017-11-20 09:56:48 GMT 50.24001 1.95854 20,000 334 213 0
2017-11-20 09:56:39 GMT 50.23401 1.96329 20,000 334 214 0
2017-11-20 09:56:36 GMT 50.22782 1.96841 20,000 335 213 0
2017-11-20 09:56:28 GMT 50.22321 1.97182 20,000 335 212 0
2017-11-20 09:56:15 GMT 50.21311 1.97999 20,000 335 214 0
2017-11-20 09:56:08 GMT 50.20570 1.98548 20,000 335 213 0
2017-11-20 09:56:06 GMT 50.20072 1.98749 20,000 334 218 0
2017-11-20 09:55:57 GMT 50.19341 1.99342 20,000 334 217 0
2017-11-20 09:55:48 GMT 50.18629 1.99959 20,000 334 216 0
2017-11-20 09:55:44 GMT 50.18280 2.00278 20,000 335 216 0
2017-11-20 09:55:35 GMT 50.17819 2.00590 20,000 334 216 0
2017-11-20 09:55:30 GMT 50.16101 2.01851 20,000 334 216 0
2017-11-20 09:55:24 GMT 50.16101 2.01851 20,000 334 216 0
2017-11-20 09:55:14 GMT 50.15720 2.02134 20,000 334 214 0
2017-11-20 09:55:03 GMT 50.14621 2.02980 20,000 334 212 0
2017-11-20 09:54:56 GMT 50.13951 2.03507 20,000 334 214 0
2017-11-20 09:54:49 GMT 50.13350 2.04012 20,000 334 215 0
2017-11-20 09:54:42 GMT 50.12889 2.04398 20,000 335 212 0
2017-11-20 09:54:35 GMT 50.12061 2.04991 20,000 334 211 0
2017-11-20 09:54:30 GMT 50.11800 2.05192 20,000 334 211 0
2017-11-20 09:54:28 GMT 50.11260 2.05608 20,000 334 209 0
2017-11-20 09:54:23 GMT 50.11260 2.05608 20,000 334 209 0
2017-11-20 09:54:18 GMT 50.10771 2.05927 20,000 334 207 0
2017-11-20 09:54:10 GMT 50.10040 2.06528 20,000 334 208 0
2017-11-20 09:54:05 GMT 50.09342 2.07070 20,000 334 208 0
2017-11-20 09:53:55 GMT 50.08848 2.07530 20,000 335 208 0
2017-11-20 09:53:42 GMT 50.07801 2.08399 20,000 336 211 0
2017-11-20 09:53:34 GMT 50.06530 2.09252 20,000 334 216 0
2017-11-20 09:53:28 GMT 50.06530 2.09252 20,000 334 216 0
2017-11-20 09:53:21 GMT 50.06088 2.09579 20,000 335 216 0
2017-11-20 09:53:15 GMT 50.05110 2.10299 20,000 334 217 0
2017-11-20 09:53:11 GMT 50.04468 2.10797 20,000 334 216 0
2017-11-20 09:53:06 GMT 50.04468 2.10797 20,000 334 216 0
2017-11-20 09:52:52 GMT 50.03039 2.11888 20,000 335 211 0
2017-11-20 09:52:43 GMT 50.02508 2.12303 20,000 335 210 0
2017-11-20 09:52:33 GMT 50.01568 2.13023 20,000 335 212 0
2017-11-20 09:52:27 GMT 50.00939 2.13439 20,000 334 211 0
2017-11-20 09:52:22 GMT 50.00478 2.13721 20,000 334 212 0
2017-11-20 09:52:15 GMT 50.00041 2.14070 20,000 334 211 0
2017-11-20 09:52:01 GMT 49.98640 2.15184 20,000 334 211 0
2017-11-20 09:51:55 GMT 49.98020 2.15622 20,000 334 211 0
2017-11-20 09:51:46 GMT 49.96968 2.16423 20,000 334 211 0
2017-11-20 09:51:41 GMT 49.96968 2.16423 20,000 334 211 0
2017-11-20 09:51:35 GMT 49.96359 2.16913 20,000 335 210 0
2017-11-20 09:51:22 GMT 49.95400 2.17693 20,000 334 209 0
2017-11-20 09:51:10 GMT 49.94199 2.18613 20,000 335 212 0
2017-11-20 09:51:03 GMT 49.93570 2.19007 20,000 334 211 0
2017-11-20 09:50:49 GMT 49.92471 2.19838 20,000 334 209 0
2017-11-20 09:50:43 GMT 49.91890 2.20313 20,000 334 210 0
2017-11-20 09:50:37 GMT 49.91471 2.20640 20,000 334 210 0
2017-11-20 09:50:31 GMT 49.91000 2.20988 20,000 334 214 0
2017-11-20 09:50:22 GMT 49.90200 2.21619 20,000 335 213 0
2017-11-20 09:50:20 GMT 49.89762 2.21931 20,000 334 213 0
2017-11-20 09:50:12 GMT 49.89408 2.22243 20,000 335 213 0
2017-11-20 09:50:08 GMT 49.88622 2.22837 20,000 335 212 0
2017-11-20 09:49:58 GMT 49.87998 2.23483 20,000 336 217 0
2017-11-20 09:49:47 GMT 49.86941 2.24351 20,000 338 216 0
2017-11-20 09:49:38 GMT 49.86229 2.24826 20,000 338 212 0
2017-11-20 09:49:27 GMT 49.85289 2.25531 20,000 339 214 0
2017-11-20 09:49:22 GMT 49.84790 2.25828 20,000 339 211 0
2017-11-20 09:49:06 GMT 49.83329 2.26793 20,000 340 209 0
2017-11-20 09:48:59 GMT 49.82719 2.27283 20,000 341 210 0
2017-11-20 09:48:49 GMT 49.81602 2.28196 20,000 343 209 0
2017-11-20 09:48:40 GMT 49.80959 2.28538 20,000 343 211 0
2017-11-20 09:48:25 GMT 49.79679 2.29169 20,000 343 211 0
2017-11-20 09:48:18 GMT 49.78850 2.29547 20,000 343 211 0
2017-11-20 09:48:06 GMT 49.77929 2.29978 20,000 343 212 0
2017-11-20 09:47:57 GMT 49.77151 2.30349 20,000 343 218 0
2017-11-20 09:47:50 GMT 49.76472 2.30698 20,000 343 216 0
2017-11-20 09:47:35 GMT 49.75191 2.31500 20,000 345 218 0
2017-11-20 09:47:28 GMT 49.74330 2.31960 20,000 345 218 0
2017-11-20 09:47:14 GMT 49.73078 2.32569 20,000 346 217 0
2017-11-20 09:47:09 GMT 49.72598 2.32873 20,000 349 216 0
2017-11-20 09:46:53 GMT 49.71262 2.33660 20,000 350 220 0
2017-11-20 09:46:45 GMT 49.70480 2.34172 20,000 353 225 0
2017-11-20 09:46:34 GMT 49.69391 2.34632 20,000 355 226 0
2017-11-20 09:46:28 GMT 49.68609 2.34929 20,000 358 223 0
2017-11-20 09:46:15 GMT 49.67338 2.35293 20,000 0 226 0
2017-11-20 09:46:04 GMT 49.66221 2.35479 20,000 2 227 0
2017-11-20 09:45:57 GMT 49.65699 2.35508 20,000 3 227 0
2017-11-20 09:45:48 GMT 49.64638 2.35441 20,000 4 226 0
2017-11-20 09:45:32 GMT 49.63060 2.35189 20,000 3 226 0
2017-11-20 09:45:27 GMT 49.62189 2.35107 20,000 3 224 0
2017-11-20 09:45:10 GMT 49.60439 2.35004 20,000 3 224 0
2017-11-20 09:45:04 GMT 49.59950 2.34922 20,000 3 225 0
2017-11-20 09:44:53 GMT 49.58689 2.34758 20,000 2 225 0
2017-11-20 09:44:43 GMT 49.57972 2.34721 20,000 2 225 0
2017-11-20 09:44:37 GMT 49.57241 2.34677 20,000 3 225 0
2017-11-20 09:44:23 GMT 49.55891 2.34573 20,000 3 225 0
2017-11-20 09:44:11 GMT 49.54722 2.34477 20,000 3 223 0
2017-11-20 09:44:05 GMT 49.53800 2.34380 20,000 2 224 0
2017-11-20 09:43:50 GMT 49.52260 2.34269 20,000 2 224 0
2017-11-20 09:43:43 GMT 49.51319 2.34217 20,000 3 223 0
2017-11-20 09:43:34 GMT 49.50500 2.34172 20,000 3 224 0

Making use of Plane Finder data

You are free to use the raw flight data, aircraft information and images provided in this report for your own purposes provided the data is correctly attributed to Plane Finder. We ask that you please credit Plane Finder and link to planefinder.net in close proximity to the content.

Optionally one of the following logos (no smaller then 150x24px) can be used and must link to planefinder.net

Embedding the Plane Finder map

You are welcome to embed the Plane Finder playback map on your website to offer visitors a more interactive experience. We suggest using the following HTML code:

<iframe src="//planefinder.net/data/report/BE3122-G-FBJC-7700-squawk-2017-11-20/map" width="800" height="600" seamless="seamless"></iframe>

Where our data comes from

Plane Finder has a global network of data feeds and antenna radars that receive data broadcast directly from aircraft. The primary technologies used are ADS-B and MLAT. We also show feeds from the FAA and a FLARM glider feed.

Click here to find out more about the Plane Finder network.

How we collect our data